Time;durP1;ratioP1;P1;durP2;ratioP2;P2;SDS_P1;SDS_P2;PMS_P1;PMS_P2;Temp;Humidity;BMP_temperature;BMP_pressure;BME280_temperature;BME280_humidity;BME280_pressure;Samples;Min_cycle;Max_cycle;Signal;HPM_P1;HPM_P2
2022/10/27 00:01:56;;;;;;;5.65;2.17;;;13.70;70.70;;;;;;5011022;28;20185;-70
2022/10/27 00:04:22;;;;;;;2.13;2.00;;;13.70;70.30;;;;;;5008844;28;20177;-70
2022/10/27 00:06:48;;;;;;;2.90;2.63;;;13.70;70.70;;;;;;5009270;28;20181;-70
2022/10/27 00:09:13;;;;;;;4.95;2.50;;;13.70;70.30;;;;;;5010191;28;20180;-71
2022/10/27 00:11:39;;;;;;;4.15;3.10;;;13.60;71.40;;;;;;5010057;28;20215;-71
2022/10/27 00:14:04;;;;;;;3.40;3.10;;;13.60;69.90;;;;;;5009074;28;20262;-70
2022/10/27 00:16:30;;;;;;;2.70;2.58;;;13.60;70.60;;;;;;5013712;28;20191;-70
2022/10/27 00:18:56;;;;;;;2.92;2.25;;;13.60;70.50;;;;;;5010668;28;20268;-71
2022/10/27 00:21:21;;;;;;;2.55;1.92;;;13.50;70.50;;;;;;5017927;28;20184;-71
2022/10/27 00:23:51;;;;;;;2.45;2.25;;;13.50;70.30;;;;;;5013073;28;20180;-70
2022/10/27 00:26:19;;;;;;;4.65;1.75;;;13.50;70.90;;;;;;5012158;28;20220;-71
2022/10/27 00:28:44;;;;;;;1.48;1.48;;;13.50;70.10;;;;;;5012225;28;20291;-71
2022/10/27 00:31:11;;;;;;;2.22;1.98;;;13.50;69.70;;;;;;5009589;28;21004;-71
2022/10/27 00:33:37;;;;;;;1.85;1.60;;;13.50;69.70;;;;;;5013678;28;20192;-70
2022/10/27 00:36:10;;;;;;;1.75;1.65;;;13.50;69.50;;;;;;5010222;28;20719;-71
2022/10/27 00:38:37;;;;;;;2.33;2.10;;;13.50;69.50;;;;;;5012789;28;20191;-71
2022/10/27 00:41:04;;;;;;;1.77;1.67;;;13.50;69.90;;;;;;5010534;28;20656;-71
2022/10/27 00:43:34;;;;;;;1.95;1.60;;;13.50;70.30;;;;;;5008466;28;20240;-69
2022/10/27 00:46:28;;;;;;;1.67;1.58;;;13.50;70.70;;;;;;5015442;28;20246;-71
2022/10/27 00:49:03;;;;;;;1.90;1.63;;;13.50;70.70;;;;;;5010389;28;20268;-71
2022/10/27 00:51:29;;;;;;;1.80;1.55;;;13.50;69.90;;;;;;5009356;28;20224;-71
2022/10/27 00:53:55;;;;;;;2.88;1.85;;;13.50;70.40;;;;;;5017990;28;20277;-71
2022/10/27 00:56:22;;;;;;;1.50;1.42;;;13.50;71.10;;;;;;5013764;28;20208;-71
2022/10/27 00:58:48;;;;;;;2.20;1.95;;;13.50;71.60;;;;;;5015954;28;20189;-71
2022/10/27 01:01:14;;;;;;;4.43;1.70;;;13.50;70.80;;;;;;5019160;28;20180;-71
2022/10/27 01:03:41;;;;;;;2.28;2.00;;;13.50;71.20;;;;;;5020537;28;20180;-71
2022/10/27 01:06:08;;;;;;;1.30;1.30;;;13.50;72.70;;;;;;5019521;28;20184;-71
2022/10/27 01:08:34;;;;;;;1.98;1.88;;;13.50;71.90;;;;;;5020520;28;20187;-71
2022/10/27 01:11:00;;;;;;;1.95;1.85;;;13.50;72.20;;;;;;5019916;28;20567;-72
2022/10/27 01:13:26;;;;;;;2.55;1.77;;;13.40;70.80;;;;;;5015791;28;20220;-71
2022/10/27 01:16:22;;;;;;;1.63;1.52;;;13.40;70.70;;;;;;5016973;28;20191;-71
2022/10/27 01:19:00;;;;;;;2.00;1.75;;;13.40;70.30;;;;;;5013847;28;20195;-71
2022/10/27 01:21:49;;;;;;;1.38;1.33;;;13.40;71.80;;;;;;5016813;28;20269;-72
2022/10/27 01:24:33;;;;;;;3.35;1.67;;;13.40;71.30;;;;;;5018767;28;20192;-69
2022/10/27 01:27:07;;;;;;;1.63;1.52;;;13.30;71.00;;;;;;5020777;28;20954;-71
2022/10/27 01:30:13;;;;;;;1.90;1.73;;;13.30;72.20;;;;;;5022428;28;20188;-71
2022/10/27 01:33:02;;;;;;;2.08;1.88;;;13.30;72.60;;;;;;4960813;28;20227;-71
2022/10/27 01:35:37;;;;;;;1.50;1.45;;;13.30;72.00;;;;;;4975645;28;20190;-71
2022/10/27 01:38:30;;;;;;;1.67;1.58;;;13.30;72.80;;;;;;4973549;28;20186;-71
2022/10/27 01:41:12;;;;;;;1.58;1.48;;;13.30;72.90;;;;;;4979497;28;20194;-71
2022/10/27 01:43:38;;;;;;;1.90;1.80;;;13.20;73.20;;;;;;4974654;28;20193;-71
2022/10/27 01:46:07;;;;;;;4.32;1.45;;;13.20;73.40;;;;;;4976666;28;20203;-72
2022/10/27 01:48:35;;;;;;;1.77;1.67;;;13.20;73.30;;;;;;4975670;28;20226;-71
2022/10/27 01:51:01;;;;;;;2.05;1.80;;;13.10;74.10;;;;;;4974705;28;20220;-71
2022/10/27 01:53:29;;;;;;;2.30;2.08;;;13.10;73.10;;;;;;4972263;28;21228;-72
2022/10/27 01:56:33;;;;;;;1.63;1.50;;;13.00;72.40;;;;;;4976139;28;20202;-72
2022/10/27 01:59:14;;;;;;;1.67;1.58;;;13.00;72.10;;;;;;4979890;28;20585;-71
2022/10/27 02:01:58;;;;;;;2.30;1.98;;;13.00;72.30;;;;;;4971734;28;20237;-71
2022/10/27 02:04:40;;;;;;;1.80;1.80;;;12.90;70.90;;;;;;4975405;28;20826;-71
2022/10/27 02:07:26;;;;;;;2.45;2.00;;;12.90;71.60;;;;;;4970467;28;20289;-71
2022/10/27 02:10:30;;;;;;;4.05;2.15;;;12.90;73.80;;;;;;5007673;28;20740;-71
2022/10/27 02:12:57;;;;;;;2.90;2.35;;;12.90;74.20;;;;;;4961526;28;20242;-71
2022/10/27 02:15:32;;;;;;;2.15;1.60;;;12.90;74.10;;;;;;4963447;28;20588;-72
2022/10/27 02:18:22;;;;;;;1.63;1.52;;;12.90;73.60;;;;;;4963452;28;20552;-72
2022/10/27 02:20:52;;;;;;;3.55;2.22;;;12.90;73.80;;;;;;4961446;28;20697;-71
2022/10/27 02:23:20;;;;;;;1.80;1.70;;;12.90;74.30;;;;;;4961712;28;20195;-71
2022/10/27 02:26:08;;;;;;;1.90;1.73;;;12.80;73.40;;;;;;4958319;28;20193;-72
2022/10/27 02:28:48;;;;;;;1.45;1.35;;;12.80;74.10;;;;;;4961065;28;20702;-72
2022/10/27 02:31:16;;;;;;;1.88;1.77;;;12.80;72.90;;;;;;4962335;28;20730;-72
2022/10/27 02:33:42;;;;;;;2.17;1.88;;;12.80;72.40;;;;;;4961175;28;20290;-72
2022/10/27 02:36:08;;;;;;;2.70;2.25;;;12.80;72.40;;;;;;4959680;28;20798;-72
2022/10/27 02:38:33;;;;;;;9.20;1.80;;;12.80;73.50;;;;;;4960582;28;20190;-72
2022/10/27 02:40:59;;;;;;;2.47;1.83;;;12.90;74.80;;;;;;4962682;28;20199;-71
2022/10/27 02:43:25;;;;;;;2.20;2.00;;;12.90;74.40;;;;;;4958417;28;20284;-71
2022/10/27 02:45:50;;;;;;;1.00;1.00;;;12.90;74.80;;;;;;4962228;28;20202;-71
2022/10/27 02:48:16;;;;;;;1.85;1.75;;;12.90;75.10;;;;;;5018501;28;20246;-71
2022/10/27 02:50:42;;;;;;;2.55;1.90;;;12.80;74.30;;;;;;5009342;28;20177;-71
2022/10/27 02:53:07;;;;;;;1.55;1.55;;;12.80;73.80;;;;;;5015012;28;20614;-71
2022/10/27 02:55:33;;;;;;;1.27;1.27;;;12.70;73.30;;;;;;5012287;28;20877;-71
2022/10/27 02:57:58;;;;;;;2.58;1.70;;;12.70;72.80;;;;;;5013821;28;20432;-71
2022/10/27 03:00:24;;;;;;;2.47;2.30;;;12.70;73.00;;;;;;5014852;28;20267;-71
2022/10/27 03:02:50;;;;;;;3.38;2.08;;;12.70;72.50;;;;;;5013713;28;20212;-71
2022/10/27 03:05:15;;;;;;;2.05;1.95;;;12.70;72.20;;;;;;5006311;28;20185;-71
2022/10/27 03:07:43;;;;;;;1.60;1.50;;;12.70;72.30;;;;;;5016991;28;20180;-71
2022/10/27 03:10:08;;;;;;;2.40;1.60;;;12.70;72.50;;;;;;5010327;28;20661;-71
2022/10/27 03:12:35;;;;;;;1.77;1.58;;;12.70;73.40;;;;;;5010433;28;20235;-71
2022/10/27 03:15:00;;;;;;;1.77;1.65;;;12.70;72.90;;;;;;5014819;28;20666;-71
2022/10/27 03:17:26;;;;;;;3.05;2.20;;;12.70;72.50;;;;;;5013934;28;20188;-71
2022/10/27 03:19:52;;;;;;;1.95;1.83;;;12.70;72.70;;;;;;5015863;28;20615;-71
2022/10/27 03:22:17;;;;;;;1.55;1.50;;;12.60;72.00;;;;;;5013060;28;20702;-71
2022/10/27 03:24:43;;;;;;;2.15;1.95;;;12.60;72.40;;;;;;5009740;28;20227;-71
2022/10/27 03:27:09;;;;;;;2.08;1.77;;;12.60;72.30;;;;;;5012247;28;20184;-71
2022/10/27 03:29:34;;;;;;;2.25;1.88;;;12.60;72.50;;;;;;5013946;28;20210;-72
2022/10/27 03:32:00;;;;;;;2.55;2.30;;;12.60;71.90;;;;;;5015045;28;20694;-71
2022/10/27 03:34:26;;;;;;;2.50;1.90;;;12.60;72.80;;;;;;5010197;28;20260;-71
2022/10/27 03:36:51;;;;;;;2.47;1.80;;;12.60;75.00;;;;;;5014145;28;20220;-71
2022/10/27 03:39:17;;;;;;;2.13;1.92;;;12.60;74.20;;;;;;5015141;28;20620;-72
2022/10/27 03:41:42;;;;;;;2.67;2.25;;;12.60;75.80;;;;;;5011377;28;20189;-71
2022/10/27 03:44:08;;;;;;;2.88;2.63;;;12.60;75.50;;;;;;5010053;28;20307;-71
2022/10/27 03:46:34;;;;;;;2.60;2.50;;;12.50;75.10;;;;;;5014370;28;20194;-72
2022/10/27 03:48:59;;;;;;;2.38;2.17;;;12.40;73.80;;;;;;5011877;28;20181;-71
2022/10/27 03:51:25;;;;;;;3.45;2.28;;;12.40;75.10;;;;;;5013021;28;20180;-72
2022/10/27 03:53:51;;;;;;;2.53;2.33;;;12.40;75.30;;;;;;5014521;28;20212;-71
2022/10/27 03:56:16;;;;;;;2.13;2.03;;;12.40;74.00;;;;;;5012027;28;20605;-71
2022/10/27 03:58:42;;;;;;;3.42;2.47;;;12.30;74.50;;;;;;5009789;28;20208;-71
2022/10/27 04:01:09;;;;;;;2.53;2.33;;;12.30;73.80;;;;;;5014217;28;20199;-71
2022/10/27 04:03:35;;;;;;;2.28;2.17;;;12.30;74.30;;;;;;5014951;28;20254;-71
2022/10/27 04:06:01;;;;;;;2.08;1.98;;;12.40;75.30;;;;;;5009858;28;20193;-71
2022/10/27 04:08:26;;;;;;;3.40;2.35;;;12.40;74.60;;;;;;5006297;28;20193;-72
2022/10/27 04:10:52;;;;;;;2.28;2.17;;;12.40;74.20;;;;;;5003124;28;20187;-72
2022/10/27 04:13:17;;;;;;;2.97;2.38;;;12.40;74.30;;;;;;5012475;28;20227;-72
2022/10/27 04:15:43;;;;;;;2.40;2.22;;;12.40;73.80;;;;;;5015767;28;20235;-72
2022/10/27 04:18:10;;;;;;;2.30;2.10;;;12.40;74.70;;;;;;5013147;28;20251;-72
2022/10/27 04:20:35;;;;;;;2.80;2.53;;;12.50;74.70;;;;;;5010730;28;20204;-72
2022/10/27 04:23:01;;;;;;;3.53;2.35;;;12.50;74.50;;;;;;5009165;28;20231;-70
2022/10/27 04:25:27;;;;;;;2.90;1.98;;;12.50;74.30;;;;;;5012313;28;20181;-70
2022/10/27 04:28:06;;;;;;;2.30;2.10;;;12.50;75.10;;;;;;5009460;28;20197;-68
2022/10/27 04:30:33;;;;;;;3.15;2.13;;;12.50;74.50;;;;;;5006567;28;20613;-68
2022/10/27 04:32:58;;;;;;;4.30;2.47;;;12.60;75.30;;;;;;5012100;28;20216;-68
2022/10/27 04:35:24;;;;;;;2.13;1.92;;;12.50;75.20;;;;;;5009314;28;20191;-68
2022/10/27 04:37:50;;;;;;;4.90;2.17;;;12.50;75.40;;;;;;5012516;28;20836;-68
2022/10/27 04:40:16;;;;;;;1.85;1.75;;;12.50;75.40;;;;;;5006960;28;20189;-71
2022/10/27 04:42:45;;;;;;;2.53;2.33;;;12.50;75.20;;;;;;5009413;28;20669;-71
2022/10/27 04:45:12;;;;;;;3.65;2.10;;;12.50;75.20;;;;;;5010231;28;20249;-71
2022/10/27 04:47:37;;;;;;;2.13;1.92;;;12.50;75.60;;;;;;5008255;28;20180;-69
2022/10/27 04:50:04;;;;;;;3.72;2.70;;;12.50;76.10;;;;;;5008256;28;20192;-69
2022/10/27 04:52:30;;;;;;;2.92;2.53;;;12.50;76.50;;;;;;5009691;28;20213;-70
2022/10/27 04:54:56;;;;;;;2.85;2.28;;;12.50;76.00;;;;;;5010499;28;20654;-69
2022/10/27 04:57:21;;;;;;;2.88;1.98;;;12.40;75.90;;;;;;5007708;28;20224;-70
2022/10/27 04:59:47;;;;;;;2.50;2.40;;;12.40;76.10;;;;;;5009065;28;20192;-70
2022/10/27 05:02:13;;;;;;;3.75;2.60;;;12.40;75.90;;;;;;5007338;28;20188;-70
2022/10/27 05:04:38;;;;;;;3.45;2.53;;;12.30;76.20;;;;;;5011112;28;20185;-70
2022/10/27 05:07:04;;;;;;;2.30;2.10;;;12.30;76.00;;;;;;5012459;28;20188;-71
2022/10/27 05:09:29;;;;;;;2.42;2.33;;;12.30;76.00;;;;;;5011595;28;20291;-69
2022/10/27 05:11:55;;;;;;;2.53;2.42;;;12.30;75.80;;;;;;5011035;28;20707;-71
2022/10/27 05:14:21;;;;;;;2.33;2.22;;;12.20;75.80;;;;;;5014698;28;20268;-71
2022/10/27 05:16:46;;;;;;;2.55;2.45;;;12.20;75.90;;;;;;5010230;28;20271;-71
2022/10/27 05:19:12;;;;;;;3.60;2.70;;;12.20;76.60;;;;;;5007866;28;20192;-71
2022/10/27 05:21:38;;;;;;;5.45;2.28;;;12.20;77.20;;;;;;5009711;28;20277;-71
2022/10/27 05:24:04;;;;;;;2.60;2.50;;;12.20;76.20;;;;;;5010787;28;20193;-71
2022/10/27 05:26:30;;;;;;;3.75;2.97;;;12.10;76.30;;;;;;5006219;28;20199;-71
2022/10/27 05:28:55;;;;;;;3.95;2.20;;;12.10;76.40;;;;;;5007183;28;20591;-71
2022/10/27 05:31:21;;;;;;;3.42;3.17;;;12.10;77.20;;;;;;5011994;28;20209;-70
2022/10/27 05:33:46;;;;;;;5.03;3.13;;;12.10;76.60;;;;;;5010257;28;20658;-70
2022/10/27 05:36:12;;;;;;;4.28;3.50;;;12.00;76.50;;;;;;5009780;28;20654;-70
2022/10/27 05:38:38;;;;;;;5.95;3.42;;;12.00;76.60;;;;;;5013878;28;20702;-69
2022/10/27 05:41:04;;;;;;;3.90;3.47;;;12.00;76.60;;;;;;5012562;28;20239;-70
2022/10/27 05:43:30;;;;;;;4.63;3.33;;;12.00;76.80;;;;;;5014128;28;20195;-70
2022/10/27 05:45:56;;;;;;;5.32;4.03;;;12.00;76.70;;;;;;5005765;28;20222;-70
2022/10/27 05:48:22;;;;;;;6.93;4.43;;;12.00;76.80;;;;;;5008940;28;20196;-69
2022/10/27 05:50:53;;;;;;;4.22;3.90;;;12.00;76.90;;;;;;5007780;28;20239;-69
2022/10/27 05:53:20;;;;;;;7.80;5.45;;;12.00;77.20;;;;;;5011872;28;20219;-69
2022/10/27 05:55:46;;;;;;;11.77;4.25;;;12.00;77.80;;;;;;5012116;28;20181;-69
2022/10/27 05:58:11;;;;;;;14.75;5.13;;;11.90;76.90;;;;;;5014878;28;20638;-70
2022/10/27 06:00:38;;;;;;;8.25;4.35;;;11.90;77.30;;;;;;5016018;28;20184;-70
2022/10/27 06:03:06;;;;;;;7.20;4.18;;;11.90;77.60;;;;;;5011425;28;21128;-70
2022/10/27 06:05:35;;;;;;;8.48;4.70;;;11.80;77.20;;;;;;5008772;28;20282;-69
2022/10/27 06:08:01;;;;;;;6.40;4.35;;;11.80;77.10;;;;;;5013393;28;20185;-70
2022/10/27 06:10:30;;;;;;;6.18;4.57;;;11.80;78.00;;;;;;5009511;28;20685;-69
2022/10/27 06:13:02;;;;;;;5.57;3.80;;;11.80;77.40;;;;;;5011767;28;20677;-71
2022/10/27 06:15:29;;;;;;;8.10;4.50;;;11.80;76.70;;;;;;5009488;28;20568;-70
2022/10/27 06:17:55;;;;;;;4.63;4.22;;;11.80;77.10;;;;;;5010834;28;20204;-69
2022/10/27 06:20:26;;;;;;;8.02;4.05;;;11.90;78.10;;;;;;5010614;28;20192;-68
2022/10/27 06:22:56;;;;;;;9.20;4.43;;;11.90;77.90;;;;;;5011190;28;21110;-69
2022/10/27 06:25:24;;;;;;;8.57;4.20;;;12.00;78.30;;;;;;5012993;28;20185;-69
2022/10/27 06:27:51;;;;;;;4.05;3.75;;;12.00;78.60;;;;;;5013609;28;20322;-69
2022/10/27 06:30:19;;;;;;;6.80;4.10;;;12.10;78.10;;;;;;5012441;28;20189;-69
2022/10/27 06:32:46;;;;;;;4.95;3.58;;;12.10;78.20;;;;;;5012155;28;20244;-68
2022/10/27 06:35:11;;;;;;;5.35;4.82;;;12.20;78.80;;;;;;5010490;28;20185;-71
2022/10/27 06:37:38;;;;;;;5.10;4.72;;;12.30;78.80;;;;;;5011950;28;20572;-71
2022/10/27 06:40:06;;;;;;;14.93;5.45;;;12.30;78.30;;;;;;5012692;28;20619;-71
2022/10/27 06:42:33;;;;;;;5.32;4.47;;;12.40;79.00;;;;;;5013429;28;20188;-70
2022/10/27 06:44:59;;;;;;;5.05;4.55;;;12.50;79.60;;;;;;5014667;28;20733;-71
2022/10/27 06:47:24;;;;;;;5.93;4.60;;;12.60;80.10;;;;;;5012479;28;20189;-69
2022/10/27 06:49:50;;;;;;;7.55;4.30;;;12.90;79.80;;;;;;5016563;28;20192;-69
2022/10/27 06:52:16;;;;;;;4.78;4.25;;;13.20;79.60;;;;;;5012164;28;20217;-69
2022/10/27 06:54:42;;;;;;;11.90;4.80;;;13.70;79.40;;;;;;5010636;28;20268;-69
2022/10/27 06:57:08;;;;;;;8.93;4.70;;;14.30;78.90;;;;;;5010283;28;20271;-69
2022/10/27 06:59:34;;;;;;;8.43;5.03;;;15.10;78.30;;;;;;5014425;28;20276;-70
2022/10/27 07:01:59;;;;;;;5.28;4.78;;;15.90;76.80;;;;;;5013313;28;20268;-68
2022/10/27 07:04:25;;;;;;;7.18;5.15;;;16.70;72.20;;;;;;5011536;28;20196;-69
2022/10/27 07:06:50;;;;;;;8.75;5.68;;;17.30;69.70;;;;;;5015684;28;20180;-70
2022/10/27 07:09:16;;;;;;;7.47;5.25;;;17.90;69.60;;;;;;5018663;28;20184;-71
2022/10/27 07:11:42;;;;;;;5.60;4.68;;;18.40;68.50;;;;;;5012637;28;20299;-71
2022/10/27 07:14:07;;;;;;;6.57;4.85;;;19.00;67.40;;;;;;5009910;28;20276;-71
2022/10/27 07:16:33;;;;;;;7.50;5.45;;;19.60;65.80;;;;;;5014423;28;20555;-71
2022/10/27 07:18:59;;;;;;;6.47;4.68;;;20.00;65.20;;;;;;5014396;28;20185;-71
2022/10/27 07:21:26;;;;;;;6.45;5.03;;;20.50;64.90;;;;;;5010513;28;20194;-71
2022/10/27 07:23:51;;;;;;;17.05;4.50;;;21.10;64.00;;;;;;5005421;28;20189;-71
2022/10/27 07:26:17;;;;;;;4.80;4.03;;;21.70;62.80;;;;;;5008042;28;20581;-71
2022/10/27 07:28:42;;;;;;;4.25;3.85;;;22.40;61.70;;;;;;5007768;28;20184;-71
2022/10/27 07:31:08;;;;;;;7.43;3.42;;;22.90;60.60;;;;;;5006751;28;20193;-69
2022/10/27 07:33:35;;;;;;;3.47;3.15;;;23.50;59.50;;;;;;5011594;28;20228;-69
2022/10/27 07:36:00;;;;;;;3.42;3.03;;;24.00;58.80;;;;;;5014811;28;20226;-70
2022/10/27 07:38:26;;;;;;;5.15;4.13;;;24.40;57.70;;;;;;5015394;28;20189;-69
2022/10/27 07:40:51;;;;;;;5.43;4.47;;;24.80;57.40;;;;;;5014532;28;21040;-71
2022/10/27 07:43:17;;;;;;;4.50;4.00;;;25.00;56.60;;;;;;5014338;28;20184;-71
2022/10/27 07:45:43;;;;;;;4.25;3.95;;;25.20;55.90;;;;;;5015733;28;20185;-70
2022/10/27 07:48:14;;;;;;;5.65;3.78;;;25.30;55.60;;;;;;5008068;28;20189;-71
2022/10/27 07:50:40;;;;;;;4.40;4.05;;;25.10;54.00;;;;;;5012278;28;20184;-70
2022/10/27 07:53:05;;;;;;;4.32;3.88;;;24.90;54.30;;;;;;5012643;28;20212;-70
2022/10/27 07:55:34;;;;;;;4.60;3.70;;;24.70;54.70;;;;;;5012707;28;20238;-71
2022/10/27 07:58:02;;;;;;;5.18;2.83;;;24.60;55.20;;;;;;5015865;28;20180;-71
2022/10/27 08:00:29;;;;;;;6.25;3.00;;;24.40;55.40;;;;;;5013147;28;20181;-71
2022/10/27 08:02:58;;;;;;;3.42;3.13;;;24.40;55.30;;;;;;5007921;28;20325;-70
2022/10/27 08:05:24;;;;;;;3.33;3.03;;;24.50;55.90;;;;;;5013581;28;20245;-71
2022/10/27 08:07:49;;;;;;;3.45;3.15;;;24.70;55.70;;;;;;5009488;28;20173;-70
2022/10/27 08:10:15;;;;;;;3.05;2.70;;;25.00;55.30;;;;;;5014654;28;20235;-71
2022/10/27 08:12:43;;;;;;;4.30;3.20;;;25.50;54.90;;;;;;5006054;28;20800;-71
2022/10/27 08:15:09;;;;;;;3.95;3.53;;;26.10;52.60;;;;;;5013700;28;20580;-71
2022/10/27 08:17:35;;;;;;;10.25;3.10;;;26.50;52.60;;;;;;5011034;28;21216;-71
2022/10/27 08:20:00;;;;;;;3.97;3.22;;;26.90;52.60;;;;;;5007066;28;20196;-71
2022/10/27 08:22:26;;;;;;;5.97;2.70;;;27.20;51.90;;;;;;5010992;28;20239;-71
2022/10/27 08:24:52;;;;;;;3.83;3.35;;;27.60;52.20;;;;;;5016069;28;20199;-71
2022/10/27 08:27:18;;;;;;;3.08;2.75;;;28.20;51.00;;;;;;5008105;28;20196;-71
2022/10/27 08:29:43;;;;;;;3.13;2.78;;;28.70;50.30;;;;;;5008442;28;20207;-71
2022/10/27 08:32:09;;;;;;;3.30;2.42;;;29.30;48.90;;;;;;5010432;28;20299;-71
2022/10/27 08:34:35;;;;;;;6.25;2.25;;;29.70;48.80;;;;;;5007870;28;20635;-71
2022/10/27 08:37:01;;;;;;;2.63;2.15;;;30.10;48.30;;;;;;5007764;28;20307;-71
2022/10/27 08:39:26;;;;;;;8.30;2.45;;;30.40;47.80;;;;;;5009614;28;20268;-71
2022/10/27 08:41:55;;;;;;;2.67;2.47;;;30.70;47.70;;;;;;5015224;28;20188;-71
2022/10/27 08:44:25;;;;;;;2.75;2.65;;;31.10;47.40;;;;;;5013443;28;20181;-71
2022/10/27 08:46:54;;;;;;;4.00;2.80;;;31.60;46.60;;;;;;5011504;28;20199;-71
2022/10/27 08:49:45;;;;;;;2.03;1.92;;;32.10;45.40;;;;;;5006991;28;20188;-71
2022/10/27 08:52:35;;;;;;;2.63;2.45;;;32.50;46.20;;;;;;5008901;28;20706;-71
2022/10/27 08:55:27;;;;;;;3.22;2.30;;;33.00;45.60;;;;;;5009655;28;20181;-71
2022/10/27 08:58:17;;;;;;;2.22;2.03;;;33.40;44.80;;;;;;5010415;28;20580;-70
2022/10/27 09:01:03;;;;;;;2.10;2.00;;;33.90;44.10;;;;;;5011708;28;20197;-71
2022/10/27 09:03:38;;;;;;;3.90;1.50;;;34.40;44.20;;;;;;5014650;28;20549;-71
2022/10/27 09:06:12;;;;;;;2.45;1.90;;;34.80;44.50;;;;;;5014414;28;20194;-69
2022/10/27 09:09:01;;;;;;;2.38;2.17;;;35.20;44.50;;;;;;5008983;28;20677;-71
2022/10/27 09:11:45;;;;;;;2.97;2.35;;;35.60;42.50;;;;;;5013136;28;20747;-70
2022/10/27 09:14:47;;;;;;;2.42;2.33;;;36.00;43.60;;;;;;5013962;28;20270;-70
2022/10/27 09:17:23;;;;;;;2.30;2.20;;;36.30;42.70;;;;;;5014645;28;20623;-70
2022/10/27 09:20:00;;;;;;;2.78;2.25;;;36.50;43.60;;;;;;5019609;28;20193;-70
2022/10/27 09:22:28;;;;;;;3.70;2.58;;;36.50;41.70;;;;;;5014498;28;20654;-70
2022/10/27 09:25:01;;;;;;;2.85;2.67;;;36.60;43.40;;;;;;5016994;28;20194;-71
2022/10/27 09:27:27;;;;;;;3.10;2.13;;;36.40;43.60;;;;;;5012175;28;20191;-71
2022/10/27 09:29:58;;;;;;;2.60;2.40;;;36.20;43.10;;;;;;5010892;28;20188;-71
2022/10/27 09:32:25;;;;;;;2.63;2.50;;;36.30;43.00;;;;;;5009286;28;20705;-72
2022/10/27 09:35:01;;;;;;;2.60;2.42;;;36.20;43.50;;;;;;5011765;28;20199;-72
2022/10/27 09:37:29;;;;;;;3.28;2.80;;;36.40;43.70;;;;;;5012676;28;20177;-71
2022/10/27 09:39:56;;;;;;;4.13;2.20;;;36.60;43.20;;;;;;5012207;28;20263;-70
2022/10/27 09:42:23;;;;;;;2.53;2.25;;;36.90;41.00;;;;;;5009671;28;20176;-70
2022/10/27 09:44:56;;;;;;;1.98;1.88;;;36.80;41.10;;;;;;5011128;28;20798;-70
2022/10/27 09:47:25;;;;;;;2.13;1.77;;;36.60;41.60;;;;;;5019605;28;20255;-72
2022/10/27 09:49:54;;;;;;;2.67;2.45;;;36.50;41.10;;;;;;5016406;28;20194;-72
2022/10/27 09:52:42;;;;;;;2.70;2.50;;;36.30;41.00;;;;;;5016974;28;20211;-69
2022/10/27 09:55:08;;;;;;;5.07;1.90;;;36.20;41.00;;;;;;5011967;28;20246;-70
2022/10/27 09:57:37;;;;;;;2.00;1.90;;;36.40;41.30;;;;;;5017791;28;20359;-71
2022/10/27 10:00:15;;;;;;;1.85;1.75;;;36.60;39.90;;;;;;5007313;28;20184;-71
2022/10/27 10:02:56;;;;;;;1.27;1.27;;;36.70;41.90;;;;;;5010567;28;20187;-70
2022/10/27 10:05:25;;;;;;;1.50;1.50;;;36.70;39.90;;;;;;5009641;28;20658;-71
2022/10/27 10:07:51;;;;;;;1.63;1.52;;;36.40;40.40;;;;;;5009011;28;20176;-71
2022/10/27 10:10:24;;;;;;;1.45;1.45;;;36.10;40.90;;;;;;5013652;28;20184;-71
2022/10/27 10:13:09;;;;;;;3.10;1.67;;;35.90;41.80;;;;;;5020000;28;20317;-70
2022/10/27 10:15:43;;;;;;;1.85;1.52;;;36.10;42.20;;;;;;5009078;28;20199;-71
2022/10/27 10:18:21;;;;;;;4.25;1.50;;;36.40;41.80;;;;;;5010989;28;20779;-70
2022/10/27 10:20:59;;;;;;;1.40;1.40;;;36.70;41.90;;;;;;5019418;28;20194;-70
2022/10/27 10:23:28;;;;;;;1.05;0.98;;;37.00;41.80;;;;;;5011220;28;20196;-70
2022/10/27 10:25:57;;;;;;;1.02;0.98;;;37.40;41.60;;;;;;5014124;28;20176;-71
2022/10/27 10:28:33;;;;;;;2.60;1.10;;;37.70;41.00;;;;;;5011833;28;20662;-71
2022/10/27 10:31:01;;;;;;;1.48;1.23;;;37.90;37.30;;;;;;5012961;28;20916;-71
2022/10/27 10:33:40;;;;;;;0.82;0.82;;;37.80;38.90;;;;;;5007267;28;20262;-71
2022/10/27 10:36:36;;;;;;;2.08;0.85;;;37.80;38.90;;;;;;5008599;28;20243;-71
2022/10/27 10:39:20;;;;;;;1.00;1.00;;;37.90;38.00;;;;;;4953993;28;20285;-72
2022/10/27 10:42:08;;;;;;;3.42;1.30;;;38.00;39.90;;;;;;4947648;28;20238;-71
2022/10/27 10:44:34;;;;;;;1.20;1.20;;;38.00;37.80;;;;;;4947366;28;20221;-71
2022/10/27 10:47:01;;;;;;;0.98;0.70;;;38.10;39.80;;;;;;4947400;28;20948;-72
2022/10/27 10:49:31;;;;;;;0.73;0.73;;;38.40;40.00;;;;;;4942007;28;20358;-71
2022/10/27 10:52:17;;;;;;;1.45;0.80;;;38.50;37.70;;;;;;4946578;28;20349;-71
2022/10/27 10:54:44;;;;;;;0.88;0.88;;;38.70;37.00;;;;;;4951967;28;20589;-70
2022/10/27 10:57:33;;;;;;;0.68;0.68;;;38.70;38.90;;;;;;4948179;28;20313;-71
2022/10/27 10:59:59;;;;;;;0.40;0.40;;;38.50;35.60;;;;;;4949786;28;20277;-71
2022/10/27 11:02:33;;;;;;;0.40;0.40;;;38.10;36.40;;;;;;4951967;28;20198;-72
2022/10/27 11:05:17;;;;;;;3.40;0.60;;;37.70;36.30;;;;;;4947189;28;20636;-71
2022/10/27 11:07:46;;;;;;;0.40;0.40;;;37.30;36.60;;;;;;4946634;28;20190;-71
2022/10/27 11:10:17;;;;;;;0.75;0.43;;;37.00;37.70;;;;;;4943618;28;20261;-71
2022/10/27 11:12:47;;;;;;;0.50;0.50;;;36.70;36.50;;;;;;4949613;28;20242;-71
2022/10/27 11:15:36;;;;;;;0.50;0.50;;;36.50;38.50;;;;;;4972604;28;20196;-71
2022/10/27 11:18:20;;;;;;;0.73;0.40;;;36.00;37.70;;;;;;5001117;28;20193;-71
2022/10/27 11:20:52;;;;;;;1.15;0.50;;;35.90;39.60;;;;;;5001812;28;20403;-71
2022/10/27 11:23:25;;;;;;;1.38;0.70;;;36.10;37.40;;;;;;5000301;28;20193;-71
2022/10/27 11:25:52;;;;;;;1.48;0.60;;;36.10;37.30;;;;;;5001864;28;20270;-72
2022/10/27 11:28:39;;;;;;;1.17;0.45;;;36.30;38.40;;;;;;5002254;28;20185;-71
2022/10/27 11:31:09;;;;;;;0.43;0.43;;;36.30;35.50;;;;;;5003884;28;20204;-71
2022/10/27 11:33:35;;;;;;;0.50;0.50;;;36.10;37.20;;;;;;5001350;28;20223;-71
2022/10/27 11:36:47;;;;;;;1.20;0.50;;;36.10;37.50;;;;;;5001467;28;20585;-72
2022/10/27 11:39:30;;;;;;;0.50;0.50;;;36.30;36.40;;;;;;4937160;28;20233;-72
2022/10/27 11:42:14;;;;;;;0.55;0.55;;;36.50;36.00;;;;;;4937643;28;20202;-71
2022/10/27 11:45:06;;;;;;;0.57;0.57;;;36.60;36.90;;;;;;4942308;28;20194;-71
2022/10/27 11:47:41;;;;;;;0.57;0.57;;;36.70;35.60;;;;;;4934746;28;20181;-71
2022/10/27 11:50:23;;;;;;;2.92;0.40;;;36.90;38.10;;;;;;4938747;28;20206;-71
2022/10/27 11:52:51;;;;;;;1.30;0.50;;;37.10;36.60;;;;;;4936289;29;20250;-72
2022/10/27 11:55:24;;;;;;;0.60;0.57;;;37.30;36.90;;;;;;4957976;28;20300;-71
2022/10/27 11:58:14;;;;;;;0.98;0.35;;;37.40;35.50;;;;;;4967095;28;20896;-71
2022/10/27 12:00:58;;;;;;;0.40;0.40;;;37.50;37.90;;;;;;4964086;28;20194;-71
2022/10/27 12:03:44;;;;;;;0.50;0.50;;;37.30;38.20;;;;;;4966201;28;20190;-71
2022/10/27 12:06:38;;;;;;;2.15;0.50;;;37.00;37.00;;;;;;4986701;28;20197;-71
2022/10/27 12:09:10;;;;;;;0.40;0.40;;;36.80;37.50;;;;;;4944286;28;20238;-72
2022/10/27 12:12:08;;;;;;;2.65;0.50;;;36.40;36.40;;;;;;4952234;28;20690;-72
2022/10/27 12:15:08;;;;;;;0.35;0.35;;;36.10;35.80;;;;;;4931323;28;20193;-71
2022/10/27 12:17:42;;;;;;;0.40;0.40;;;35.60;37.10;;;;;;4999726;28;20192;-70
2022/10/27 12:20:15;;;;;;;2.50;0.77;;;35.20;37.70;;;;;;5000170;28;20200;-71
2022/10/27 12:22:58;;;;;;;0.50;0.50;;;34.80;38.60;;;;;;4996364;28;20677;-71
2022/10/27 12:25:33;;;;;;;0.75;0.75;;;34.70;37.70;;;;;;4998971;28;20803;-70
2022/10/27 12:28:04;;;;;;;0.60;0.60;;;34.80;37.70;;;;;;4998795;28;20275;-71
2022/10/27 12:30:31;;;;;;;0.57;0.50;;;34.90;38.20;;;;;;4998592;28;20188;-71
2022/10/27 12:33:19;;;;;;;0.40;0.40;;;35.00;37.80;;;;;;4996732;28;20223;-71
2022/10/27 12:35:52;;;;;;;0.73;0.73;;;35.20;38.60;;;;;;4997179;28;20276;-71
2022/10/27 12:38:26;;;;;;;0.50;0.50;;;35.30;38.10;;;;;;4998230;28;20182;-72
2022/10/27 12:41:08;;;;;;;1.10;0.50;;;35.20;37.80;;;;;;4997968;28;20643;-72
2022/10/27 12:43:58;;;;;;;0.50;0.50;;;35.30;38.20;;;;;;4997695;28;20262;-71
2022/10/27 12:47:03;;;;;;;0.98;0.50;;;35.00;37.80;;;;;;5006770;28;20305;-71
2022/10/27 12:49:51;;;;;;;0.50;0.50;;;34.80;37.00;;;;;;5008893;28;20180;-71
2022/10/27 12:52:25;;;;;;;0.50;0.50;;;34.30;37.40;;;;;;5010370;28;20291;-71
2022/10/27 12:55:17;;;;;;;0.50;0.50;;;34.20;37.50;;;;;;5010895;28;20187;-71
2022/10/27 12:57:54;;;;;;;1.17;0.50;;;33.90;38.40;;;;;;4990169;28;20199;-71
2022/10/27 13:00:22;;;;;;;0.63;0.40;;;33.30;39.40;;;;;;4988836;28;20192;-71
2022/10/27 13:02:56;;;;;;;0.43;0.43;;;33.10;38.90;;;;;;4986993;28;20231;-72
2022/10/27 13:05:43;;;;;;;0.40;0.40;;;33.00;39.70;;;;;;4991032;28;20903;-72
2022/10/27 13:08:23;;;;;;;0.50;0.50;;;32.90;39.10;;;;;;4989812;28;20673;-73